Time;durP1;ratioP1;P1;durP2;ratioP2;P2;SDS_P1;SDS_P2;PMS_P1;PMS_P2;Temp;Humidity;BMP_temperature;BMP_pressure;BME280_temperature;BME280_humidity;BME280_pressure;Samples;Min_cycle;Max_cycle;Signal;HPM_P1;HPM_P2
2021/10/17 00:05:53;;;;;;;13.48;5.15;;;8.00;99.90;;;;;;6728188;88;20217;-77
2021/10/17 00:15:54;;;;;;;14.90;5.55;;;7.70;99.90;;;;;;6718330;88;20181;-77
2021/10/17 00:25:55;;;;;;;10.85;4.70;;;7.60;99.90;;;;;;6717114;88;20726;-78
2021/10/17 00:35:55;;;;;;;16.93;6.00;;;7.40;99.90;;;;;;6720609;88;20198;-78
2021/10/17 00:45:56;;;;;;;13.68;5.45;;;7.20;99.90;;;;;;6721754;88;20563;-77
2021/10/17 00:55:56;;;;;;;11.15;5.20;;;7.10;99.90;;;;;;6716803;88;20222;-78
2021/10/17 01:05:57;;;;;;;12.82;5.40;;;6.90;99.90;;;;;;6720847;88;20665;-77
2021/10/17 01:15:58;;;;;;;15.23;5.50;;;6.80;99.90;;;;;;6721214;88;20280;-77
2021/10/17 01:25:58;;;;;;;11.18;4.95;;;6.70;99.90;;;;;;6720849;88;20219;-78
2021/10/17 01:35:59;;;;;;;12.20;4.50;;;6.60;99.90;;;;;;6722268;88;20694;-77
2021/10/17 01:45:59;;;;;;;13.38;5.55;;;6.70;99.90;;;;;;6723396;88;20497;-77
2021/10/17 01:56:01;;;;;;;12.00;5.10;;;6.80;99.90;;;;;;6728222;88;20193;-77
2021/10/17 02:06:02;;;;;;;12.85;5.35;;;6.50;99.90;;;;;;6723199;88;20305;-78
2021/10/17 02:16:03;;;;;;;14.65;6.00;;;6.70;99.90;;;;;;6724104;88;20233;-78
2021/10/17 02:26:03;;;;;;;11.68;4.53;;;6.50;99.90;;;;;;6722697;88;20197;-78
2021/10/17 02:36:04;;;;;;;10.57;5.00;;;6.40;99.90;;;;;;6720576;88;20188;-78
2021/10/17 02:46:05;;;;;;;14.32;5.15;;;6.40;99.90;;;;;;6724181;88;20238;-77
2021/10/17 02:56:06;;;;;;;10.73;4.87;;;6.20;99.90;;;;;;6724070;88;20208;-76
2021/10/17 03:06:06;;;;;;;13.20;5.57;;;6.10;99.90;;;;;;6727266;88;20381;-78
2021/10/17 03:16:07;;;;;;;12.45;5.68;;;6.00;99.90;;;;;;6729176;88;20196;-79
2021/10/17 03:26:07;;;;;;;13.75;5.62;;;6.10;99.90;;;;;;6718797;88;20193;-77
2021/10/17 03:36:08;;;;;;;11.40;5.50;;;5.90;99.90;;;;;;6727221;88;20225;-78
2021/10/17 03:46:09;;;;;;;15.02;5.22;;;6.10;99.90;;;;;;6725634;88;20189;-77
2021/10/17 03:56:09;;;;;;;15.60;5.47;;;6.20;99.90;;;;;;6724476;88;20188;-78
2021/10/17 04:06:10;;;;;;;10.05;5.25;;;6.10;99.90;;;;;;6729754;88;20642;-78
2021/10/17 04:16:10;;;;;;;13.23;5.78;;;6.00;99.90;;;;;;6722418;88;20223;-76
2021/10/17 04:26:11;;;;;;;15.48;6.87;;;5.90;99.90;;;;;;6721087;88;20617;-77
2021/10/17 04:36:11;;;;;;;14.07;6.90;;;5.70;99.90;;;;;;6725193;88;20235;-78
2021/10/17 04:46:12;;;;;;;12.17;5.73;;;5.80;99.90;;;;;;6721990;88;20197;-79
2021/10/17 04:56:13;;;;;;;15.90;6.60;;;5.50;99.90;;;;;;6729522;88;20537;-80
2021/10/17 05:06:14;;;;;;;16.73;7.30;;;5.40;99.90;;;;;;6722633;88;20284;-78
2021/10/17 05:16:14;;;;;;;27.15;7.93;;;5.60;99.90;;;;;;6723091;88;20206;-77
2021/10/17 05:26:15;;;;;;;30.23;7.68;;;5.70;99.90;;;;;;6727522;88;20213;-78
2021/10/17 05:36:15;;;;;;;68.43;7.25;;;5.80;99.90;;;;;;6730454;88;20207;-77
2021/10/17 05:46:16;;;;;;;15.27;7.05;;;5.60;99.90;;;;;;6728166;88;20343;-78
2021/10/17 05:56:16;;;;;;;31.17;6.22;;;5.40;99.90;;;;;;6723839;88;20229;-79
2021/10/17 06:06:17;;;;;;;29.48;7.15;;;5.30;99.90;;;;;;6719625;88;20173;-77
2021/10/17 06:16:17;;;;;;;16.10;6.78;;;5.40;99.90;;;;;;6730049;88;20208;-78
2021/10/17 06:26:18;;;;;;;13.60;6.50;;;5.30;99.90;;;;;;6723686;88;20630;-78
2021/10/17 06:36:19;;;;;;;13.45;6.95;;;5.10;99.90;;;;;;6722834;88;20205;-78
2021/10/17 06:46:19;;;;;;;9.85;5.35;;;5.20;99.90;;;;;;6727035;88;20212;-78
2021/10/17 06:56:20;;;;;;;8.75;5.00;;;5.40;99.90;;;;;;6722945;88;20211;-79
2021/10/17 07:06:20;;;;;;;11.88;5.50;;;5.70;99.90;;;;;;6722952;88;20239;-78
2021/10/17 07:16:21;;;;;;;11.68;5.62;;;5.80;99.90;;;;;;6730872;88;20185;-78
2021/10/17 07:26:22;;;;;;;11.55;5.28;;;6.00;99.90;;;;;;6725737;88;20196;-81
2021/10/17 07:36:22;;;;;;;9.93;5.57;;;6.60;99.90;;;;;;6731538;88;20304;-79
2021/10/17 07:46:23;;;;;;;10.55;4.40;;;7.40;99.90;;;;;;6729418;88;20169;-84
2021/10/17 07:56:23;;;;;;;9.80;4.90;;;8.40;99.90;;;;;;6732488;88;20312;-79
2021/10/17 08:06:24;;;;;;;15.52;5.55;;;9.60;99.90;;;;;;6729058;88;20189;-80
2021/10/17 08:16:24;;;;;;;13.00;7.33;;;9.80;99.90;;;;;;6723050;88;20217;-78
2021/10/17 08:26:25;;;;;;;15.25;8.32;;;10.20;99.90;;;;;;6723198;88;20511;-78
2021/10/17 08:36:25;;;;;;;16.73;9.17;;;9.80;99.90;;;;;;6723540;88;20264;-78
2021/10/17 08:46:27;;;;;;;18.98;8.27;;;9.80;99.90;;;;;;6727238;88;20589;-77
2021/10/17 08:56:28;;;;;;;15.88;8.52;;;10.00;99.90;;;;;;6706609;88;20216;-78
2021/10/17 09:06:34;;;;;;;17.05;7.70;;;11.60;99.90;;;;;;6713901;88;20193;-78
2021/10/17 09:16:40;;;;;;;13.48;7.20;;;12.30;99.90;;;;;;6718681;88;20190;-77
2021/10/17 09:27:17;;;;;;;13.88;6.40;;;13.50;99.90;;;;;;6722359;88;20236;-77
2021/10/17 09:37:18;;;;;;;12.13;6.30;;;13.50;99.90;;;;;;6706465;88;20215;-78
2021/10/17 09:47:18;;;;;;;12.55;6.10;;;14.40;99.90;;;;;;6699442;88;20289;-78
2021/10/17 09:57:19;;;;;;;10.57;4.57;;;16.10;99.90;;;;;;6713899;88;20202;-78
2021/10/17 10:07:24;;;;;;;8.40;4.05;;;15.80;99.90;;;;;;6720442;88;21187;-78
2021/10/17 10:17:25;;;;;;;;;;;16.20;99.90;;;;;;6721280;88;20166;-78
2021/10/17 10:27:27;;;;;;;7.45;3.58;;;16.70;99.90;;;;;;6714586;77;20097;-75
2021/10/17 10:37:30;;;;;;;6.72;3.35;;;17.30;99.90;;;;;;6737174;88;20181;-77
2021/10/17 10:47:31;;;;;;;9.43;3.17;;;17.00;99.90;;;;;;6729232;88;20177;-77
2021/10/17 10:57:42;;;;;;;4.62;2.20;;;17.20;99.90;;;;;;6731250;88;20186;-76
2021/10/17 11:07:45;;;;;;;5.57;2.12;;;18.90;97.70;;;;;;6729760;88;20260;-76
2021/10/17 11:17:54;;;;;;;4.50;2.25;;;18.20;96.40;;;;;;6736899;88;20195;-77
2021/10/17 11:27:56;;;;;;;6.22;1.85;;;18.60;95.60;;;;;;6722740;88;20609;-76
2021/10/17 11:37:58;;;;;;;4.82;1.60;;;17.90;97.20;;;;;;6731383;88;20790;-75
2021/10/17 11:48:01;;;;;;;2.78;1.52;;;17.40;95.90;;;;;;6726349;86;20203;-77
2021/10/17 11:58:05;;;;;;;6.82;2.10;;;17.90;96.80;;;;;;6723940;88;20314;-76
2021/10/17 12:08:20;;;;;;;3.75;2.00;;;17.60;95.90;;;;;;6719311;88;20201;-77
2021/10/17 12:18:20;;;;;;;3.27;1.57;;;17.90;96.50;;;;;;6718679;88;20178;-77
2021/10/17 12:28:21;;;;;;;5.07;1.70;;;18.00;93.40;;;;;;6720563;88;20225;-77
2021/10/17 12:38:28;;;;;;;3.50;1.60;;;19.20;92.30;;;;;;6734511;88;20189;-77
2021/10/17 12:48:59;;;;;;;2.67;1.50;;;18.90;91.70;;;;;;6731293;88;20625;-77
2021/10/17 12:59:12;;;;;;;2.70;1.35;;;18.50;90.10;;;;;;6721217;88;20271;-77
2021/10/17 13:09:12;;;;;;;3.85;1.90;;;18.10;91.00;;;;;;6722379;88;20196;-76
2021/10/17 13:19:13;;;;;;;3.47;1.52;;;18.60;91.00;;;;;;6724691;88;20605;-77
2021/10/17 13:29:13;;;;;;;3.42;1.62;;;18.30;89.90;;;;;;6724468;88;20230;-77
2021/10/17 13:39:14;;;;;;;4.40;1.70;;;18.20;91.00;;;;;;6726208;88;20660;-77
2021/10/17 13:49:14;;;;;;;3.45;1.60;;;17.70;90.90;;;;;;6737638;88;20244;-76
2021/10/17 13:59:15;;;;;;;3.75;1.70;;;16.90;91.40;;;;;;6731893;88;20819;-77
2021/10/17 14:09:15;;;;;;;4.22;1.65;;;16.60;93.80;;;;;;6729080;88;20790;-77
2021/10/17 14:19:16;;;;;;;4.07;1.52;;;16.40;94.40;;;;;;6723061;88;20265;-77
2021/10/17 14:29:16;;;;;;;6.90;1.60;;;16.20;94.90;;;;;;6719006;88;20239;-77
2021/10/17 14:39:17;;;;;;;2.70;2.03;;;16.10;95.40;;;;;;6725865;88;20197;-77
2021/10/17 14:49:18;;;;;;;6.00;2.87;;;16.00;95.50;;;;;;6728288;88;20199;-76
2021/10/17 14:59:20;;;;;;;4.75;2.40;;;15.80;97.20;;;;;;6732998;88;20218;-77
2021/10/17 15:09:21;;;;;;;6.22;2.97;;;15.60;97.40;;;;;;6735871;88;20318;-77
2021/10/17 15:19:22;;;;;;;5.72;2.67;;;15.40;98.30;;;;;;6739616;88;20326;-75
2021/10/17 15:29:22;;;;;;;5.53;3.37;;;15.20;99.50;;;;;;6728700;88;20182;-77
2021/10/17 15:39:23;;;;;;;7.47;3.78;;;15.10;99.90;;;;;;6731893;88;20272;-77
2021/10/17 15:49:23;;;;;;;8.93;3.10;;;15.30;99.90;;;;;;6726827;88;20196;-76
2021/10/17 15:59:24;;;;;;;6.60;3.30;;;14.90;99.90;;;;;;6731927;88;20241;-79
2021/10/17 16:09:24;;;;;;;6.28;3.62;;;14.50;99.90;;;;;;6730504;88;20535;-76
2021/10/17 16:19:25;;;;;;;7.43;3.60;;;13.90;99.90;;;;;;6733099;88;20306;-76
2021/10/17 16:29:25;;;;;;;5.30;3.40;;;13.40;99.90;;;;;;6729624;88;20217;-78
2021/10/17 16:39:26;;;;;;;5.82;3.17;;;13.20;99.90;;;;;;6729145;88;20235;-78
2021/10/17 16:49:27;;;;;;;7.32;3.33;;;12.50;99.90;;;;;;6722699;88;20201;-79
2021/10/17 16:59:28;;;;;;;6.07;3.10;;;12.40;99.90;;;;;;6737758;88;20607;-77
2021/10/17 17:09:28;;;;;;;5.18;2.85;;;11.90;99.90;;;;;;6720119;88;20210;-78
2021/10/17 17:19:29;;;;;;;6.45;2.60;;;11.60;99.90;;;;;;6716647;88;20209;-77
2021/10/17 17:29:30;;;;;;;5.60;3.62;;;11.40;99.90;;;;;;6731635;88;20210;-77
2021/10/17 17:39:30;;;;;;;10.10;4.40;;;11.30;99.90;;;;;;6734613;88;20909;-77
2021/10/17 17:49:32;;;;;;;7.25;3.90;;;11.00;99.90;;;;;;6737407;88;20704;-78
2021/10/17 17:59:32;;;;;;;8.20;4.40;;;11.10;99.90;;;;;;6733830;88;20180;-77
2021/10/17 18:09:33;;;;;;;8.70;3.90;;;10.90;99.90;;;;;;6735967;88;20204;-77
2021/10/17 18:19:33;;;;;;;6.17;3.87;;;10.70;99.90;;;;;;6737111;88;20287;-78
2021/10/17 18:29:34;;;;;;;9.05;4.22;;;10.50;99.90;;;;;;6724860;88;20635;-79
2021/10/17 18:39:34;;;;;;;7.60;4.00;;;10.30;99.90;;;;;;6720520;88;20323;-79
2021/10/17 18:49:35;;;;;;;8.32;4.12;;;10.20;99.90;;;;;;6723856;88;20227;-78
2021/10/17 18:59:35;;;;;;;7.40;4.22;;;10.10;99.90;;;;;;6721891;88;20729;-78
2021/10/17 19:09:36;;;;;;;8.13;4.25;;;9.90;99.90;;;;;;6724753;88;20240;-78
2021/10/17 19:19:37;;;;;;;8.20;4.78;;;9.80;99.90;;;;;;6729222;88;20204;-79
2021/10/17 19:29:38;;;;;;;8.32;4.82;;;9.70;99.90;;;;;;6756958;87;20179;-78
2021/10/17 19:39:39;;;;;;;9.60;5.80;;;9.70;99.90;;;;;;6758607;88;20320;-78
2021/10/17 19:49:39;;;;;;;8.35;5.18;;;9.50;99.90;;;;;;6748366;88;20678;-78
2021/10/17 19:59:40;;;;;;;8.32;4.93;;;9.60;99.90;;;;;;6739613;88;20202;-79
2021/10/17 20:09:41;;;;;;;9.63;5.70;;;9.60;99.90;;;;;;6738493;88;20173;-79
2021/10/17 20:19:41;;;;;;;9.05;5.62;;;9.30;99.90;;;;;;6744515;88;20193;-79
2021/10/17 20:29:43;;;;;;;10.00;5.82;;;9.30;99.90;;;;;;6757049;87;20870;-79
2021/10/17 20:39:43;;;;;;;15.70;7.28;;;9.30;99.90;;;;;;6756148;88;20329;-81
2021/10/17 20:49:46;;;;;;;10.23;5.40;;;8.90;99.90;;;;;;6723144;88;20214;-79
2021/10/17 20:59:47;;;;;;;10.85;5.87;;;8.90;99.90;;;;;;6723372;88;20197;-79
2021/10/17 21:09:47;;;;;;;10.98;5.15;;;8.80;99.90;;;;;;6723883;88;20227;-79
2021/10/17 21:19:48;;;;;;;9.98;5.55;;;8.70;99.90;;;;;;6726666;88;20230;-80
2021/10/17 21:29:48;;;;;;;10.23;5.62;;;8.60;99.90;;;;;;6727668;88;20259;-78
2021/10/17 21:39:49;;;;;;;8.88;5.22;;;8.40;99.90;;;;;;6729938;88;20240;-79
2021/10/17 21:49:49;;;;;;;12.05;5.80;;;8.30;99.90;;;;;;6728049;88;20259;-78
2021/10/17 21:59:50;;;;;;;9.07;5.40;;;8.40;99.90;;;;;;6723193;88;20193;-79
2021/10/17 22:09:51;;;;;;;11.40;5.45;;;8.60;99.90;;;;;;6726042;88;20316;-78
2021/10/17 22:19:52;;;;;;;8.95;4.62;;;8.50;99.90;;;;;;6724337;88;20170;-78
2021/10/17 22:29:52;;;;;;;10.30;4.68;;;8.30;99.90;;;;;;6725491;88;20325;-76
2021/10/17 22:39:53;;;;;;;7.45;4.90;;;8.20;99.90;;;;;;6726836;88;20211;-80
2021/10/17 22:49:53;;;;;;;6.87;4.90;;;8.20;99.90;;;;;;6727065;88;20185;-80
2021/10/17 22:59:54;;;;;;;9.60;5.35;;;8.10;99.90;;;;;;6727027;88;20196;-78
2021/10/17 23:09:55;;;;;;;9.05;5.20;;;7.90;99.90;;;;;;6726139;88;20181;-78
2021/10/17 23:19:57;;;;;;;8.70;5.20;;;7.80;99.90;;;;;;6725684;88;20212;-79
2021/10/17 23:29:58;;;;;;;9.55;5.32;;;7.60;99.90;;;;;;6724167;88;20510;-79
2021/10/17 23:39:59;;;;;;;8.05;5.15;;;7.60;99.90;;;;;;6726688;88;20311;-79
2021/10/17 23:49:59;;;;;;;10.68;5.07;;;7.60;99.90;;;;;;6722726;88;20247;-78
